Time;durP1;ratioP1;P1;durP2;ratioP2;P2;SDS_P1;SDS_P2;PMS_P1;PMS_P2;Temp;Humidity;BMP_temperature;BMP_pressure;BME280_temperature;BME280_humidity;BME280_pressure;Samples;Min_cycle;Max_cycle;Signal;HPM_P1;HPM_P2
2023/10/25 00:02:16;;;;;;;;;;;;;;;;;;5074947;28;19931;-72
2023/10/25 00:04:42;;;;;;;;;;;;;;;;;;5075142;28;19908;-71
2023/10/25 00:07:08;;;;;;;;;;;;;;;;;;5073484;28;19946;-72
2023/10/25 00:09:34;;;;;;;;;;;;;;;;;;5075065;28;19915;-71
2023/10/25 00:12:01;;;;;;;;;;;;;;;;;;5074579;28;19954;-71
2023/10/25 00:14:27;;;;;;;;;;;;;;;;;;5074882;28;19914;-71
2023/10/25 00:16:53;;;;;;;;;;;;;;;;;;5074809;28;20011;-71
2023/10/25 00:19:19;;;;;;;;;;;;;;;;;;5074412;28;19924;-71
2023/10/25 00:21:45;;;;;;;;;;;;;;;;;;5074751;28;20261;-71
2023/10/25 00:24:11;;;;;;;;;;;;;;;;;;5074723;28;19916;-71
2023/10/25 00:26:37;;;;;;;;;;;;;;;;;;5074316;28;19908;-71
2023/10/25 00:29:03;;;;;;;;;;;;;;;;;;5073344;28;19908;-71
2023/10/25 00:31:29;;;;;;;;;;;;;;;;;;5074696;28;19913;-71
2023/10/25 00:33:55;;;;;;;;;;;;;;;;;;5074190;28;19916;-71
2023/10/25 00:36:21;;;;;;;;;;;;;;;;;;5073026;28;19915;-70
2023/10/25 00:38:47;;;;;;;;;;;;;;;;;;5074565;28;19908;-71
2023/10/25 00:41:13;;;;;;;;;;;;;;;;;;5074178;28;20327;-71
2023/10/25 00:43:39;;;;;;;;;;;;;;;;;;5074427;28;19917;-71
2023/10/25 00:46:05;;;;;;;;;;;;;;;;;;5074358;28;19915;-71
2023/10/25 00:48:31;;;;;;;;;;;;;;;;;;5073926;28;19909;-71
2023/10/25 00:50:57;;;;;;;;;;;;;;;;;;5074227;28;19916;-71
2023/10/25 00:53:23;;;;;;;;;;;;;;;;;;5074259;28;19962;-71
2023/10/25 00:55:49;;;;;;;;;;;;;;;;;;5073988;28;19912;-71
2023/10/25 00:58:15;;;;;;;;;;;;;;;;;;5074428;28;20369;-71
2023/10/25 01:00:41;;;;;;;;;;;;;;;;;;5074146;28;20380;-71
2023/10/25 01:03:07;;;;;;;;;;;;;;;;;;5073695;28;19931;-71
2023/10/25 01:05:33;;;;;;;;;;;;;;;;;;5074448;28;20329;-71
2023/10/25 01:07:59;;;;;;;;;;;;;;;;;;5074007;28;19913;-71
2023/10/25 01:10:24;;;;;;;;;;;;;;;;;;5073657;28;20274;-72
2023/10/25 01:12:50;;;;;;;;;;;;;;;;;;5073723;28;20250;-72
2023/10/25 01:15:16;;;;;;;;;;;;;;;;;;5073773;28;20371;-72
2023/10/25 01:17:42;;;;;;;;;;;;;;;;;;5073850;28;20391;-72
2023/10/25 01:20:08;;;;;;;;;;;;;;;;;;5073894;28;19930;-71
2023/10/25 01:22:34;;;;;;;;;;;;;;;;;;5073503;28;19908;-72
2023/10/25 01:25:00;;;;;;;;;;;;;;;;;;5073838;28;19908;-71
2023/10/25 01:27:26;;;;;;;;;;;;;;;;;;5073875;28;20376;-72
2023/10/25 01:29:52;;;;;;;;;;;;;;;;;;5073381;28;19908;-71
2023/10/25 01:32:18;;;;;;;;;;;;;;;;;;5073788;28;19908;-71
2023/10/25 01:34:44;;;;;;;;;;;;;;;;;;5073807;28;19962;-71
2023/10/25 01:37:10;;;;;;;;;;;;;;;;;;5073090;28;19920;-72
2023/10/25 01:39:36;;;;;;;;;;;;;;;;;;5073725;28;19908;-72
2023/10/25 01:42:02;;;;;;;;;;;;;;;;;;5073685;28;19916;-71
2023/10/25 01:44:28;;;;;;;;;;;;;;;;;;5073522;28;19916;-71
2023/10/25 01:46:54;;;;;;;;;;;;;;;;;;5073651;28;20404;-71
2023/10/25 01:49:20;;;;;;;;;;;;;;;;;;5072394;28;19908;-71
2023/10/25 01:51:45;;;;;;;;;;;;;;;;;;5073187;28;19962;-71
2023/10/25 01:54:12;;;;;;;;;;;;;;;;;;5073506;28;19915;-71
2023/10/25 01:56:38;;;;;;;;;;;;;;;;;;5073843;28;19916;-72
2023/10/25 01:59:04;;;;;;;;;;;;;;;;;;5073168;28;19915;-71
2023/10/25 02:01:30;;;;;;;;;;;;;;;;;;5073495;28;19916;-72
2023/10/25 02:03:56;;;;;;;;;;;;;;;;;;5073455;28;19912;-72
2023/10/25 02:06:21;;;;;;;;;;;;;;;;;;5073102;28;19999;-71
2023/10/25 02:08:47;;;;;;;;;;;;;;;;;;5073434;28;20357;-71
2023/10/25 02:11:15;;;;;;;;;;;;;;;;;;5073885;28;20446;-72
2023/10/25 02:13:41;;;;;;;;;;;;;;;;;;5073085;28;20279;-71
2023/10/25 02:16:07;;;;;;;;;;;;;;;;;;5073365;28;20007;-71
2023/10/25 02:18:33;;;;;;;;;;;;;;;;;;5072987;28;19962;-71
2023/10/25 02:21:00;;;;;;;;;;;;;;;;;;5073467;28;19912;-72
2023/10/25 02:23:26;;;;;;;;;;;;;;;;;;5074087;28;20257;-71
2023/10/25 02:25:52;;;;;;;;;;;;;;;;;;5076899;28;19955;-71
2023/10/25 02:28:18;;;;;;;;;;;;;;;;;;5076960;28;19916;-72
2023/10/25 02:30:44;;;;;;;;;;;;;;;;;;5076958;28;19915;-71
2023/10/25 02:33:10;;;;;;;;;;;;;;;;;;5076480;28;19908;-72
2023/10/25 02:35:36;;;;;;;;;;;;;;;;;;5075561;28;19908;-71
2023/10/25 02:38:02;;;;;;;;;;;;;;;;;;5076669;28;19920;-71
2023/10/25 02:40:28;;;;;;;;;;;;;;;;;;5076347;28;19952;-71
2023/10/25 02:42:54;;;;;;;;;;;;;;;;;;5076732;28;19916;-71
2023/10/25 02:45:20;;;;;;;;;;;;;;;;;;5076790;28;19908;-71
2023/10/25 02:47:46;;;;;;;;;;;;;;;;;;5076331;28;19909;-72
2023/10/25 02:50:12;;;;;;;;;;;;;;;;;;5076704;28;19908;-71
2023/10/25 02:52:38;;;;;;;;;;;;;;;;;;5076562;28;19908;-71
2023/10/25 02:55:04;;;;;;;;;;;;;;;;;;5076219;28;19995;-71
2023/10/25 02:57:30;;;;;;;;;;;;;;;;;;5075136;28;19995;-71
2023/10/25 02:59:56;;;;;;;;;;;;;;;;;;5076462;28;19908;-71
2023/10/25 03:02:22;;;;;;;;;;;;;;;;;;5075971;28;19908;-71
2023/10/25 03:04:48;;;;;;;;;;;;;;;;;;5075071;28;19991;-71
2023/10/25 03:07:14;;;;;;;;;;;;;;;;;;5076286;28;19943;-71
2023/10/25 03:09:40;;;;;;;;;;;;;;;;;;5075895;28;20336;-71
2023/10/25 03:12:05;;;;;;;;;;;;;;;;;;5074909;28;19908;-71
2023/10/25 03:14:31;;;;;;;;;;;;;;;;;;5076168;28;19931;-70
2023/10/25 03:16:59;;;;;;;;;;;;;;;;;;5075696;28;19960;-71
2023/10/25 03:19:28;;;;;;;;;;;;;;;;;;5076073;28;19919;-71
2023/10/25 03:21:54;;;;;;;;;;;;;;;;;;5075746;28;19909;-72
2023/10/25 03:24:20;;;;;;;;;;;;;;;;;;5075926;28;19915;-72
2023/10/25 03:26:46;;;;;;;;;;;;;;;;;;5075956;28;19916;-71
2023/10/25 03:29:12;;;;;;;;;;;;;;;;;;5075689;28;19909;-71
2023/10/25 03:31:38;;;;;;;;;;;;;;;;;;5074568;28;19909;-71
2023/10/25 03:34:04;;;;;;;;;;;;;;;;;;5075791;28;20007;-71
2023/10/25 03:36:30;;;;;;;;;;;;;;;;;;5075062;28;19939;-71
2023/10/25 03:38:57;;;;;;;;;;;;;;;;;;5076055;28;19908;-71
2023/10/25 03:41:23;;;;;;;;;;;;;;;;;;5075590;28;20368;-71
2023/10/25 03:43:49;;;;;;;;;;;;;;;;;;5075227;28;19938;-71
2023/10/25 03:46:16;;;;;;;;;;;;;;;;;;5075604;28;19909;-71
2023/10/25 03:48:42;;;;;;;;;;;;;;;;;;5075536;28;20281;-71
2023/10/25 03:51:08;;;;;;;;;;;;;;;;;;5075122;28;19909;-71
2023/10/25 03:53:34;;;;;;;;;;;;;;;;;;5074176;28;19909;-72
2023/10/25 03:56:00;;;;;;;;;;;;;;;;;;5075421;28;19995;-71
2023/10/25 03:58:25;;;;;;;;;;;;;;;;;;5074930;28;20020;-71
2023/10/25 04:00:51;;;;;;;;;;;;;;;;;;5075315;28;19916;-71
2023/10/25 04:03:17;;;;;;;;;;;;;;;;;;5075200;28;19908;-72
2023/10/25 04:05:43;;;;;;;;;;;;;;;;;;5073527;28;19962;-72
2023/10/25 04:08:09;;;;;;;;;;;;;;;;;;5075353;28;19912;-72
2023/10/25 04:10:35;;;;;;;;;;;;;;;;;;5075128;28;19943;-71
2023/10/25 04:13:02;;;;;;;;;;;;;;;;;;5073401;28;20294;-72
2023/10/25 04:15:30;;;;;;;;;;;;;;;;;;5074944;28;19909;-72
2023/10/25 04:17:56;;;;;;;;;;;;;;;;;;5075029;28;19916;-72
2023/10/25 04:20:22;;;;;;;;;;;;;;;;;;5074465;28;20411;-71
2023/10/25 04:22:48;;;;;;;;;;;;;;;;;;5073609;28;20348;-71
2023/10/25 04:25:15;;;;;;;;;;;;;;;;;;5073033;28;20381;-71
2023/10/25 04:27:41;;;;;;;;;;;;;;;;;;5074747;28;19999;-71
2023/10/25 04:30:07;;;;;;;;;;;;;;;;;;5074712;28;19940;-71
2023/10/25 04:32:33;;;;;;;;;;;;;;;;;;5074563;28;19909;-71
2023/10/25 04:34:59;;;;;;;;;;;;;;;;;;5074573;28;20329;-71
2023/10/25 04:37:25;;;;;;;;;;;;;;;;;;5074355;28;20369;-72
2023/10/25 04:39:51;;;;;;;;;;;;;;;;;;5074361;28;20279;-71
2023/10/25 04:42:17;;;;;;;;;;;;;;;;;;5074601;28;20382;-72
2023/10/25 04:44:43;;;;;;;;;;;;;;;;;;5074397;28;19961;-71
2023/10/25 04:47:09;;;;;;;;;;;;;;;;;;5072255;28;19913;-71
2023/10/25 04:49:35;;;;;;;;;;;;;;;;;;5074361;28;19908;-71
2023/10/25 04:52:01;;;;;;;;;;;;;;;;;;5073030;28;20001;-71
2023/10/25 04:54:26;;;;;;;;;;;;;;;;;;5073856;28;19908;-71
2023/10/25 04:56:52;;;;;;;;;;;;;;;;;;5074073;28;20008;-72
2023/10/25 04:59:18;;;;;;;;;;;;;;;;;;5074134;28;19921;-71
2023/10/25 05:01:44;;;;;;;;;;;;;;;;;;5073880;28;19908;-71
2023/10/25 05:04:10;;;;;;;;;;;;;;;;;;5071569;28;19915;-71
2023/10/25 05:06:36;;;;;;;;;;;;;;;;;;5072743;28;19908;-72
2023/10/25 05:09:02;;;;;;;;;;;;;;;;;;5073796;28;19908;-71
2023/10/25 05:11:28;;;;;;;;;;;;;;;;;;5074210;28;19908;-72
2023/10/25 05:13:54;;;;;;;;;;;;;;;;;;5074212;28;19916;-71
2023/10/25 05:16:20;;;;;;;;;;;;;;;;;;5073391;28;19909;-72
2023/10/25 05:18:47;;;;;;;;;;;;;;;;;;5073351;28;19917;-72
2023/10/25 05:21:13;;;;;;;;;;;;;;;;;;5072163;28;20593;-71
2023/10/25 05:23:39;;;;;;;;;;;;;;;;;;5071896;28;20050;-72
2023/10/25 05:26:05;;;;;;;;;;;;;;;;;;5071267;28;19909;-70
2023/10/25 05:28:31;;;;;;;;;;;;;;;;;;5069970;28;19908;-71
2023/10/25 05:30:57;;;;;;;;;;;;;;;;;;5071569;28;19916;-70
2023/10/25 05:33:23;;;;;;;;;;;;;;;;;;5071726;28;19932;-71
2023/10/25 05:35:49;;;;;;;;;;;;;;;;;;5067119;28;20343;-72
2023/10/25 05:38:18;;;;;;;;;;;;;;;;;;5069152;28;20007;-71
2023/10/25 05:40:44;;;;;;;;;;;;;;;;;;5059174;28;20276;-71
2023/10/25 05:43:10;;;;;;;;;;;;;;;;;;5057725;28;20416;-71
2023/10/25 05:45:38;;;;;;;;;;;;;;;;;;5070437;28;19909;-71
2023/10/25 05:48:04;;;;;;;;;;;;;;;;;;5071446;28;19914;-71
2023/10/25 05:50:30;;;;;;;;;;;;;;;;;;5072226;28;20015;-71
2023/10/25 05:52:56;;;;;;;;;;;;;;;;;;5070568;28;20421;-73
2023/10/25 05:55:22;;;;;;;;;;;;;;;;;;5069553;28;20373;-71
2023/10/25 05:57:48;;;;;;;;;;;;;;;;;;5069743;28;19916;-71
2023/10/25 06:00:14;;;;;;;;;;;;;;;;;;5073948;28;19915;-71
2023/10/25 06:02:39;;;;;;;;;;;;;;;;;;5075248;28;19909;-71
2023/10/25 06:05:05;;;;;;;;;;;;;;;;;;5068931;28;19909;-71
2023/10/25 06:07:31;;;;;;;;;;;;;;;;;;5061733;28;19913;-73
2023/10/25 06:09:57;;;;;;;;;;;;;;;;;;5072202;28;19915;-71
2023/10/25 06:12:23;;;;;;;;;;;;;;;;;;5068833;28;19915;-70
2023/10/25 06:14:49;;;;;;;;;;;;;;;;;;5063048;28;20380;-71
2023/10/25 06:17:15;;;;;;;;;;;;;;;;;;5069164;28;20402;-71
2023/10/25 06:19:41;;;;;;;;;;;;;;;;;;5069918;28;19974;-71
2023/10/25 06:22:07;;;;;;;;;;;;;;;;;;5060040;28;19913;-70
2023/10/25 06:24:33;;;;;;;;;;;;;;;;;;5054669;28;19962;-71
2023/10/25 06:26:59;;;;;;;;;;;;;;;;;;5054674;28;19913;-73
2023/10/25 06:29:25;;;;;;;;;;;;;;;;;;5058164;28;19963;-71
2023/10/25 06:31:51;;;;;;;;;;;;;;;;;;5068378;28;19913;-71
2023/10/25 06:34:17;;;;;;;;;;;;;;;;;;5070307;28;19963;-71
2023/10/25 06:36:43;;;;;;;;;;;;;;;;;;5075809;28;19938;-70
2023/10/25 06:39:09;;;;;;;;;;;;;;;;;;5075583;28;19948;-70
2023/10/25 06:41:35;;;;;;;;;;;;;;;;;;5075772;28;19912;-70
2023/10/25 06:44:01;;;;;;;;;;;;;;;;;;5074501;28;19909;-71
2023/10/25 06:46:27;;;;;;;;;;;;;;;;;;5060494;28;19967;-71
2023/10/25 06:48:54;;;;;;;;;;;;;;;;;;5071861;28;19976;-70
2023/10/25 06:51:20;;;;;;;;;;;;;;;;;;5074223;28;19912;-70
2023/10/25 06:53:49;;;;;;;;;;;;;;;;;;5073163;28;19913;-71
2023/10/25 06:56:15;;;;;;;;;;;;;;;;;;5075844;28;19951;-70
2023/10/25 06:58:41;;;;;;;;;;;;;;;;;;5074108;28;19917;-71
2023/10/25 07:01:07;;;;;;;;;;;;;;;;;;5071556;28;19919;-71
2023/10/25 07:03:36;;;;;;;;;;;;;;;;;;5074486;28;20003;-71
2023/10/25 07:06:03;;;;;;;;;;;;;;;;;;5074470;28;20315;-71
2023/10/25 07:08:28;;;;;;;;;;;;;;;;;;5069495;28;20293;-71
2023/10/25 07:10:54;;;;;;;;;;;;;;;;;;5071290;28;20006;-71
2023/10/25 07:13:20;;;;;;;;;;;;;;;;;;5069870;28;19917;-71
2023/10/25 07:15:47;;;;;;;;;;;;;;;;;;5070461;28;19908;-71
2023/10/25 07:18:13;;;;;;;;;;;;;;;;;;5069279;28;19916;-71
2023/10/25 07:20:38;;;;;;;;;;;;;;;;;;5071159;28;19912;-71
2023/10/25 07:23:05;;;;;;;;;;;;;;;;;;5067575;28;19914;-71
2023/10/25 07:25:30;;;;;;;;;;;;;;;;;;5070191;28;19971;-71
2023/10/25 07:27:56;;;;;;;;;;;;;;;;;;5070787;28;19913;-72
2023/10/25 07:30:22;;;;;;;;;;;;;;;;;;5065297;28;19959;-71
2023/10/25 07:32:48;;;;;;;;;;;;;;;;;;5058558;28;19909;-71
2023/10/25 07:35:14;;;;;;;;;;;;;;;;;;5071239;28;19973;-72
2023/10/25 07:37:40;;;;;;;;;;;;;;;;;;5073104;28;20045;-72
2023/10/25 07:40:06;;;;;;;;;;;;;;;;;;5072562;28;20292;-70
2023/10/25 07:42:32;;;;;;;;;;;;;;;;;;5072038;28;19915;-69
2023/10/25 07:44:58;;;;;;;;;;;;;;;;;;5070844;28;19912;-71
2023/10/25 07:47:24;;;;;;;;;;;;;;;;;;5072385;28;19959;-70
2023/10/25 07:49:50;;;;;;;;;;;;;;;;;;5069711;28;19949;-71
2023/10/25 07:53:04;;;;;;;;;;;;;;;;;;5086394;27;19912;-70
2023/10/25 07:55:30;;;;;;;;;;;;;;;;;;5084804;28;19955;-70
2023/10/25 07:57:56;;;;;;;;;;;;;;;;;;5082412;28;20014;-71
2023/10/25 08:01:33;;;;;;;;;;;;;;;;;;5076849;27;19927;-69
2023/10/25 08:03:59;;;;;;;;;;;;;;;;;;5084121;28;20275;-67
2023/10/25 08:06:25;;;;;;;;;;;;;;;;;;5080141;28;19913;-67
2023/10/25 08:08:51;;;;;;;;;;;;;;;;;;5070572;28;19938;-68
2023/10/25 08:11:17;;;;;;;;;;;;;;;;;;5072012;28;19913;-68
2023/10/25 08:13:43;;;;;;;;;;;;;;;;;;5078081;28;19955;-69
2023/10/25 08:16:09;;;;;;;;;;;;;;;;;;5077438;28;20284;-68
2023/10/25 08:18:35;;;;;;;;;;;;;;;;;;5067976;28;19916;-69
2023/10/25 08:21:01;;;;;;;;;;;;;;;;;;5083870;28;19970;-68
2023/10/25 08:23:34;;;;;;;;;;;;;;;;;;5077952;28;20054;-68
2023/10/25 08:26:01;;;;;;;;;;;;;;;;;;5069600;28;19992;-67
2023/10/25 08:28:27;;;;;;;;;;;;;;;;;;5088874;28;19915;-69
2023/10/25 08:30:53;;;;;;;;;;;;;;;;;;5088342;28;19908;-68
2023/10/25 08:33:19;;;;;;;;;;;;;;;;;;5082177;28;19913;-68
2023/10/25 08:35:45;;;;;;;;;;;;;;;;;;5077491;28;19926;-69
2023/10/25 08:38:13;;;;;;;;;;;;;;;;;;5086496;28;19951;-70
2023/10/25 08:42:30;;;;;;;;;;;;;;;;;;5132658;27;19912;-68
2023/10/25 08:44:56;;;;;;;;;;;;;;;;;;5125677;28;20372;-68
2023/10/25 08:47:22;;;;;;;;;;;;;;;;;;5123168;28;19911;-69
2023/10/25 08:49:48;;;;;;;;;;;;;;;;;;5128983;28;19915;-69
2023/10/25 08:52:14;;;;;;;;;;;;;;;;;;5129352;28;19908;-71
2023/10/25 08:54:41;;;;;;;;;;;;;;;;;;5125741;28;19912;-69
2023/10/25 08:57:07;;;;;;;;;;;;;;;;;;5110668;28;19908;-69
2023/10/25 08:59:33;;;;;;;;;;;;;;;;;;5104586;28;20006;-70
2023/10/25 09:01:59;;;;;;;;;;;;;;;;;;5117113;28;20022;-74
2023/10/25 09:04:25;;;;;;;;;;;;;;;;;;5096912;28;19911;-70
2023/10/25 09:06:51;;;;;;;;;;;;;;;;;;5115375;28;19911;-68
2023/10/25 09:09:17;;;;;;;;;;;;;;;;;;5130429;28;20283;-70
2023/10/25 09:11:43;;;;;;;;;;;;;;;;;;5123524;28;19911;-70
2023/10/25 09:14:55;;;;;;;;;;;;;;;;;;5080493;28;19921;-67
2023/10/25 09:17:21;;;;;;;;;;;;;;;;;;5087706;28;19917;-67
2023/10/25 09:19:47;;;;;;;;;;;;;;;;;;5068744;28;19913;-68
2023/10/25 09:22:13;;;;;;;;;;;;;;;;;;5067932;28;19913;-69
2023/10/25 09:24:39;;;;;;;;;;;;;;;;;;5068317;28;19919;-68
2023/10/25 09:27:05;;;;;;;;;;;;;;;;;;5066549;28;20331;-68
2023/10/25 09:29:35;;;;;;;;;;;;;;;;;;5065133;28;19916;-67
2023/10/25 09:32:01;;;;;;;;;;;;;;;;;;5067392;28;20273;-67
2023/10/25 09:34:27;;;;;;;;;;;;;;;;;;5067285;28;19917;-68
2023/10/25 09:36:53;;;;;;;;;;;;;;;;;;5068785;28;20412;-68
2023/10/25 09:39:19;;;;;;;;;;;;;;;;;;5068169;28;19912;-68
2023/10/25 09:41:50;;;;;;;;;;;;;;;;;;5068152;28;19923;-67
2023/10/25 09:44:17;;;;;;;;;;;;;;;;;;5069272;28;19909;-68
2023/10/25 09:46:42;;;;;;;;;;;;;;;;;;5068537;28;19916;-67
2023/10/25 09:49:09;;;;;;;;;;;;;;;;;;5067337;28;19909;-67
2023/10/25 09:51:35;;;;;;;;;;;;;;;;;;5063694;28;19925;-68
2023/10/25 09:54:00;;;;;;;;;;;;;;;;;;5067555;28;20422;-68
2023/10/25 09:56:26;;;;;;;;;;;;;;;;;;5067169;28;19944;-67
2023/10/25 09:58:52;;;;;;;;;;;;;;;;;;5067997;28;19931;-66
2023/10/25 10:01:18;;;;;;;;;;;;;;;;;;5066206;28;19908;-67
2023/10/25 10:03:44;;;;;;;;;;;;;;;;;;5065123;28;20114;-67
2023/10/25 10:06:10;;;;;;;;;;;;;;;;;;5063289;28;19948;-68
2023/10/25 10:08:36;;;;;;;;;;;;;;;;;;5063071;28;19970;-69
2023/10/25 10:11:02;;;;;;;;;;;;;;;;;;5061584;28;19909;-68
2023/10/25 10:13:28;;;;;;;;;;;;;;;;;;5062094;28;19921;-68
2023/10/25 10:15:54;;;;;;;;;;;;;;;;;;5063774;28;19996;-68
2023/10/25 10:18:20;;;;;;;;;;;;;;;;;;5060327;28;19909;-68
2023/10/25 10:20:46;;;;;;;;;;;;;;;;;;5059360;28;19913;-68
2023/10/25 10:23:16;;;;;;;;;;;;;;;;;;5066513;28;19920;-68
2023/10/25 10:25:42;;;;;;;;;;;;;;;;;;5056104;28;19970;-68
2023/10/25 10:28:08;;;;;;;;;;;;;;;;;;5052826;28;19944;-67
2023/10/25 10:30:34;;;;;;;;;;;;;;;;;;5052148;28;19917;-68
2023/10/25 10:33:00;;;;;;;;;;;;;;;;;;5051172;28;19966;-70
2023/10/25 10:35:28;;;;;;;;;;;;;;;;;;5051019;28;20323;-70
2023/10/25 10:37:54;;;;;;;;;;;;;;;;;;5050886;28;19912;-71
2023/10/25 10:40:20;;;;;;;;;;;;;;;;;;5049727;28;19989;-71
2023/10/25 10:42:46;;;;;;;;;;;;;;;;;;5049677;28;20008;-71
2023/10/25 10:45:12;;;;;;;;;;;;;;;;;;5047364;28;19920;-71
2023/10/25 10:47:38;;;;;;;;;;;;;;;;;;5052614;28;19909;-71
2023/10/25 10:50:03;;;;;;;;;;;;;;;;;;5052505;28;20286;-71
2023/10/25 10:52:29;;;;;;;;;;;;;;;;;;5051977;28;19920;-71
2023/10/25 10:54:55;;;;;;;;;;;;;;;;;;5051022;28;20131;-71
2023/10/25 10:57:21;;;;;;;;;;;;;;;;;;5052421;28;19913;-71
2023/10/25 10:59:47;;;;;;;;;;;;;;;;;;5048519;28;19916;-70
2023/10/25 11:02:13;;;;;;;;;;;;;;;;;;5048147;28;19909;-70
2023/10/25 11:04:39;;;;;;;;;;;;;;;;;;5049021;28;19975;-71
2023/10/25 11:07:05;;;;;;;;;;;;;;;;;;5050632;28;20006;-72
2023/10/25 11:09:31;;;;;;;;;;;;;;;;;;5048139;28;20395;-70
2023/10/25 11:11:57;;;;;;;;;;;;;;;;;;5048632;28;19909;-71
2023/10/25 11:14:23;;;;;;;;;;;;;;;;;;5049754;28;20038;-71
2023/10/25 11:16:49;;;;;;;;;;;;;;;;;;5050883;28;19909;-71
2023/10/25 11:19:15;;;;;;;;;;;;;;;;;;5049975;28;19913;-71
2023/10/25 11:21:41;;;;;;;;;;;;;;;;;;5050199;28;20420;-70
2023/10/25 11:24:07;;;;;;;;;;;;;;;;;;5053520;28;19908;-70
2023/10/25 11:26:37;;;;;;;;;;;;;;;;;;5054676;28;19962;-70
2023/10/25 11:29:03;;;;;;;;;;;;;;;;;;5054481;28;20333;-69
2023/10/25 11:31:29;;;;;;;;;;;;;;;;;;5054798;28;19916;-70
2023/10/25 11:33:55;;;;;;;;;;;;;;;;;;5054990;28;19920;-70
2023/10/25 11:36:21;;;;;;;;;;;;;;;;;;5053447;28;20287;-70
2023/10/25 11:38:47;;;;;;;;;;;;;;;;;;5054918;28;20261;-70
2023/10/25 11:41:14;;;;;;;;;;;;;;;;;;5054433;28;19962;-70
2023/10/25 11:43:40;;;;;;;;;;;;;;;;;;5054818;28;19909;-70
2023/10/25 11:46:06;;;;;;;;;;;;;;;;;;5054816;28;19909;-69
2023/10/25 11:48:31;;;;;;;;;;;;;;;;;;5054507;28;19908;-70
2023/10/25 11:50:57;;;;;;;;;;;;;;;;;;5054551;28;20420;-69
2023/10/25 11:53:23;;;;;;;;;;;;;;;;;;5053288;28;19921;-70
2023/10/25 11:55:50;;;;;;;;;;;;;;;;;;5054112;28;19920;-69
2023/10/25 11:58:16;;;;;;;;;;;;;;;;;;5054507;28;19909;-69
2023/10/25 12:00:42;;;;;;;;;;;;;;;;;;5052773;28;19916;-70
2023/10/25 12:03:08;;;;;;;;;;;;;;;;;;5053359;28;19909;-67
2023/10/25 12:05:35;;;;;;;;;;;;;;;;;;5048477;28;19913;-68
2023/10/25 12:08:01;;;;;;;;;;;;;;;;;;5051512;28;20369;-71
2023/10/25 12:10:27;;;;;;;;;;;;;;;;;;5050063;28;19935;-71
2023/10/25 12:14:35;;;;;;;;;;;;;;;;;;5088546;27;20377;-71
2023/10/25 12:17:01;;;;;;;;;;;;;;;;;;5088909;28;19965;-70
2023/10/25 12:19:27;;;;;;;;;;;;;;;;;;5087807;28;19915;-71
2023/10/25 12:21:56;;;;;;;;;;;;;;;;;;5086675;28;19909;-70
2023/10/25 12:25:08;;;;;;;;;;;;;;;;;;5040861;28;19921;-70
2023/10/25 12:27:34;;;;;;;;;;;;;;;;;;5047211;28;19920;-70
2023/10/25 12:30:00;;;;;;;;;;;;;;;;;;5043815;28;19971;-70
2023/10/25 12:32:26;;;;;;;;;;;;;;;;;;5046906;28;19924;-71
2023/10/25 12:34:52;;;;;;;;;;;;;;;;;;5047576;28;19909;-71
2023/10/25 12:37:18;;;;;;;;;;;;;;;;;;5048317;28;19967;-71
2023/10/25 12:39:44;;;;;;;;;;;;;;;;;;5047080;28;19909;-71
2023/10/25 12:42:10;;;;;;;;;;;;;;;;;;5048590;28;19913;-71
2023/10/25 12:48:05;;;;;;;;;;;;;;;;;;5089206;27;20372;-72
2023/10/25 12:50:31;;;;;;;;;;;;;;;;;;5090397;28;20007;-72
2023/10/25 12:52:57;;;;;;;;;;;;;;;;;;5089238;28;20003;-71
2023/10/25 12:55:23;;;;;;;;;;;;;;;;;;5091119;28;19913;-72
2023/10/25 12:57:49;;;;;;;;;;;;;;;;;;5090464;28;19966;-70
2023/10/25 13:00:15;;;;;;;;;;;;;;;;;;5089544;28;20390;-71
2023/10/25 13:02:41;;;;;;;;;;;;;;;;;;5091094;28;19913;-71
2023/10/25 13:05:08;;;;;;;;;;;;;;;;;;5089586;28;19934;-71
2023/10/25 13:07:34;;;;;;;;;;;;;;;;;;5089635;28;19924;-71
2023/10/25 13:10:00;;;;;;;;;;;;;;;;;;5090904;28;19953;-71
2023/10/25 13:13:28;;;;;;;;;;;;;;;;;;5090497;27;19919;-71
2023/10/25 13:15:54;;;;;;;;;;;;;;;;;;5089479;28;19966;-71
2023/10/25 13:18:20;;;;;;;;;;;;;;;;;;5089442;28;19912;-71
2023/10/25 13:20:46;;;;;;;;;;;;;;;;;;5088737;28;19912;-71
2023/10/25 13:23:12;;;;;;;;;;;;;;;;;;5089116;28;19944;-71
2023/10/25 13:25:38;;;;;;;;;;;;;;;;;;5089138;28;19962;-72
2023/10/25 13:28:04;;;;;;;;;;;;;;;;;;5088721;28;20015;-72
2023/10/25 13:30:30;;;;;;;;;;;;;;;;;;5089197;28;20108;-72
2023/10/25 13:32:56;;;;;;;;;;;;;;;;;;5089256;28;19924;-72
2023/10/25 13:35:22;;;;;;;;;;;;;;;;;;5090647;28;19962;-72
2023/10/25 13:37:48;;;;;;;;;;;;;;;;;;5089555;28;19909;-72
2023/10/25 13:40:14;;;;;;;;;;;;;;;;;;5090824;28;19909;-72
2023/10/25 13:42:40;;;;;;;;;;;;;;;;;;5090411;28;19916;-72
2023/10/25 13:45:06;;;;;;;;;;;;;;;;;;5090757;28;20016;-72
2023/10/25 13:47:32;;;;;;;;;;;;;;;;;;5090750;28;19915;-71
2023/10/25 13:49:58;;;;;;;;;;;;;;;;;;5088984;28;19908;-72
2023/10/25 13:52:23;;;;;;;;;;;;;;;;;;5089296;28;19916;-72
2023/10/25 13:54:49;;;;;;;;;;;;;;;;;;5090261;28;19909;-72
2023/10/25 13:59:34;;;;;;;;;;;;;;;;;;5112030;27;19922;-70
2023/10/25 14:03:51;;;;;;;;;;;;;;;;;;5111376;27;20384;-72
2023/10/25 14:06:18;;;;;;;;;;;;;;;;;;5111742;28;20014;-72
2023/10/25 14:12:07;;;;;;;;;;;;;;;;;;5051203;28;19995;-70
2023/10/25 14:14:33;;;;;;;;;;;;;;;;;;5049806;28;20011;-71
2023/10/25 14:16:59;;;;;;;;;;;;;;;;;;5050720;28;19909;-71
2023/10/25 14:19:25;;;;;;;;;;;;;;;;;;5050954;28;19909;-71
2023/10/25 14:21:51;;;;;;;;;;;;;;;;;;5049727;28;19974;-71
2023/10/25 14:24:18;;;;;;;;;;;;;;;;;;5050366;28;19940;-71
2023/10/25 14:26:44;;;;;;;;;;;;;;;;;;5048929;28;19995;-72
2023/10/25 14:29:11;;;;;;;;;;;;;;;;;;5050181;28;20016;-72
2023/10/25 14:32:11;;;;;;;;;;;;;;;;;;5090530;27;19993;-71
2023/10/25 14:34:37;;;;;;;;;;;;;;;;;;5090969;28;19912;-71
2023/10/25 14:37:03;;;;;;;;;;;;;;;;;;5090325;28;19912;-72
2023/10/25 14:39:29;;;;;;;;;;;;;;;;;;5090623;28;20003;-72
2023/10/25 14:41:55;;;;;;;;;;;;;;;;;;5090638;28;19908;-71
2023/10/25 14:44:21;;;;;;;;;;;;;;;;;;5090233;28;20276;-72
2023/10/25 14:46:49;;;;;;;;;;;;;;;;;;5090515;28;19978;-71
2023/10/25 14:49:15;;;;;;;;;;;;;;;;;;5090494;28;19908;-72
2023/10/25 14:51:41;;;;;;;;;;;;;;;;;;5089890;28;19920;-71
2023/10/25 14:54:09;;;;;;;;;;;;;;;;;;5090636;28;19942;-72
2023/10/25 14:56:35;;;;;;;;;;;;;;;;;;5090679;28;19999;-72
2023/10/25 14:59:52;;;;;;;;;;;;;;;;;;5173311;27;19911;-70
2023/10/25 15:02:35;;;;;;;;;;;;;;;;;;5112077;27;19916;-73
2023/10/25 15:05:01;;;;;;;;;;;;;;;;;;5110381;28;20019;-71
2023/10/25 15:07:27;;;;;;;;;;;;;;;;;;5111266;28;19908;-71
2023/10/25 15:09:53;;;;;;;;;;;;;;;;;;5111608;28;19955;-72
2023/10/25 15:12:19;;;;;;;;;;;;;;;;;;5111162;28;19908;-71
2023/10/25 15:14:45;;;;;;;;;;;;;;;;;;5111510;28;19908;-72
2023/10/25 15:17:11;;;;;;;;;;;;;;;;;;5111493;28;20326;-72
2023/10/25 15:19:37;;;;;;;;;;;;;;;;;;5111061;28;19951;-72
2023/10/25 15:22:03;;;;;;;;;;;;;;;;;;5111368;28;19939;-72
2023/10/25 15:24:29;;;;;;;;;;;;;;;;;;5111345;28;19908;-72
2023/10/25 15:26:58;;;;;;;;;;;;;;;;;;5110888;28;20287;-72
2023/10/25 15:29:24;;;;;;;;;;;;;;;;;;5111280;28;20372;-72
2023/10/25 15:31:50;;;;;;;;;;;;;;;;;;5111170;28;19915;-72
2023/10/25 15:34:16;;;;;;;;;;;;;;;;;;5109552;28;19999;-72
2023/10/25 15:36:43;;;;;;;;;;;;;;;;;;5111715;28;20267;-72
2023/10/25 15:39:09;;;;;;;;;;;;;;;;;;5111050;28;19975;-72
2023/10/25 15:41:35;;;;;;;;;;;;;;;;;;5110595;28;20027;-71
2023/10/25 15:44:03;;;;;;;;;;;;;;;;;;5111002;28;19909;-71
2023/10/25 15:46:29;;;;;;;;;;;;;;;;;;5109607;28;19908;-71
2023/10/25 15:48:55;;;;;;;;;;;;;;;;;;5109244;28;19965;-71
2023/10/25 15:51:22;;;;;;;;;;;;;;;;;;5110889;28;19961;-71
2023/10/25 15:53:48;;;;;;;;;;;;;;;;;;5110780;28;19943;-71
2023/10/25 15:56:14;;;;;;;;;;;;;;;;;;5110337;28;19955;-71
2023/10/25 15:58:39;;;;;;;;;;;;;;;;;;5110845;28;19961;-72
2023/10/25 16:02:54;;;;;;;;;;;;;;;;;;5111494;27;19916;-73
2023/10/25 16:05:21;;;;;;;;;;;;;;;;;;5111829;28;20006;-71
2023/10/25 16:07:47;;;;;;;;;;;;;;;;;;5111737;28;19930;-70
2023/10/25 16:10:13;;;;;;;;;;;;;;;;;;5111334;28;20029;-71
2023/10/25 16:12:39;;;;;;;;;;;;;;;;;;5111604;28;19939;-71
2023/10/25 16:16:33;;;;;;;;;;;;;;;;;;5091338;27;19923;-71
2023/10/25 16:18:59;;;;;;;;;;;;;;;;;;5091383;28;19998;-71
2023/10/25 16:21:25;;;;;;;;;;;;;;;;;;5091334;28;19951;-73
2023/10/25 16:23:51;;;;;;;;;;;;;;;;;;5091056;28;19912;-71
2023/10/25 16:26:17;;;;;;;;;;;;;;;;;;5091619;28;20383;-71
2023/10/25 16:28:45;;;;;;;;;;;;;;;;;;5091206;28;20310;-71
2023/10/25 16:31:11;;;;;;;;;;;;;;;;;;5090771;28;19908;-71
2023/10/25 16:33:37;;;;;;;;;;;;;;;;;;5091086;28;19915;-71
2023/10/25 16:36:03;;;;;;;;;;;;;;;;;;5090998;28;19946;-71
2023/10/25 16:38:29;;;;;;;;;;;;;;;;;;5090635;28;20011;-71
2023/10/25 16:40:55;;;;;;;;;;;;;;;;;;5089722;28;19909;-71
2023/10/25 16:43:21;;;;;;;;;;;;;;;;;;5090931;28;19908;-71
2023/10/25 16:45:50;;;;;;;;;;;;;;;;;;5089156;28;20002;-71
2023/10/25 16:48:16;;;;;;;;;;;;;;;;;;5091108;28;19999;-72
2023/10/25 16:50:43;;;;;;;;;;;;;;;;;;5090390;28;20016;-72
2023/10/25 16:53:09;;;;;;;;;;;;;;;;;;5090961;28;19915;-72
2023/10/25 16:55:35;;;;;;;;;;;;;;;;;;5090614;28;20007;-72
2023/10/25 16:58:01;;;;;;;;;;;;;;;;;;5090599;28;19962;-71
2023/10/25 17:00:29;;;;;;;;;;;;;;;;;;5090587;28;19915;-72
2023/10/25 17:02:55;;;;;;;;;;;;;;;;;;5090029;28;19908;-71